Coffs Harbour, New South Wales

4:07 AM AEDT on March 03, 2015 (GMT +1100)
Sawtell, Bonville Creek Mouth | Change Station
CLOSE
Current Station
Personal Weather Station
Location: Sawtell, NEW SOUTH WALES
Elevation: 26 ft
Nearby Weather Stations

Elev 26 ft 30.37 °S, 153.10 °E | Updated 9 seconds ago

Scattered Clouds
Scattered Clouds
67.3 °F
Feels Like 67.3 °F
N
2.2
Wind Variable Wind from WSW
Gusts 4.5 mph

Today
High -- | Low -- °F
--% Chance of Precip.
Yesterday
High -- | Low -- °F
Precip. -- in
6:39 AM 7:19 PM
Waxing Gibbous, 92% visible
Pressure 29.98 in
Visibility 6.2 miles
Clouds Scattered Clouds 5600 ft
Dew Point 63 °F
Humidity 86%
Rainfall 0.00 in
Snow Depth Not available.
UV 0 out of 12
Pollen Not available.
Air Quality Not available.
Flu Activity Not available.
METAR YGFN 021600Z AUTO 00000KT 9999 // SCT056 20/19 Q1015

More Conditions Fewer Conditions

Pressure 29.98 in
Visibility 6.2 miles
Clouds Scattered Clouds 5600 ft
Dew Point 63 °F
Humidity 86%
Rainfall 0.00 in
Snow Depth Not available.
UV 0 out of 12
Pollen Not available.
Air Quality Not available.
Flu Activity Not available.
METAR YGFN 021600Z AUTO 00000KT 9999 // SCT056 20/19 Q1015

More Conditions Fewer Conditions

10-Day Weather Forecast

Almanac

Astronomy

Mar. 03, 2015 Rise Set
Actual Time
Civil Twilight
Nautical Twilight
Astronomical Twilight
Moon
Length of Visible Light
Length of Day
Tomorrow will be .
, % of the Moon is Illuminated

Today's Extremes

Country Highs Country Lows

Community

WunderPhotos

Upload Photos

1,801,852 photos uploaded!

WunderBlogs® & News

Nearby

Air Quality

  Air Quality AQ Index Pollutant
Not available.

Snow Depth

Station Depth Elevation

Earthquake Activity

City Distance Mag. Time & Date
Minimum magnitude displayed is 2.5.

Coastal Water Temperatures

Place Temperature

Nearby Weather Stations